Time;durP1;ratioP1;P1;durP2;ratioP2;P2;SDS_P1;SDS_P2;PMS_P1;PMS_P2;Temp;Humidity;BMP_temperature;BMP_pressure;BME280_temperature;BME280_humidity;BME280_pressure;Samples;Min_cycle;Max_cycle;Signal;HPM_P1;HPM_P2
2021/07/26 00:00:41;;;;;;;;;;;;;;;24.26;41.73;99944.19;5090724;28;20291;-48
2021/07/26 00:03:06;;;;;;;;;;;;;;;24.31;41.58;99950.38;5090832;28;20003;-52
2021/07/26 00:05:32;;;;;;;;;;;;;;;24.53;40.99;99962.66;5090695;28;19912;-47
2021/07/26 00:07:57;;;;;;;;;;;;;;;24.58;41.21;99966.13;5090622;28;20285;-48
2021/07/26 00:10:22;;;;;;;;;;;;;;;25.12;39.79;99964.03;5089458;28;19975;-49
2021/07/26 00:12:48;;;;;;;;;;;;;;;24.72;40.55;99971.66;5091065;28;19959;-50
2021/07/26 00:15:13;;;;;;;;;;;;;;;24.67;41.05;99970.91;5090378;28;20441;-51
2021/07/26 00:17:38;;;;;;;;;;;;;;;24.67;40.99;99963.56;5090523;28;19912;-51
2021/07/26 00:20:04;;;;;;;;;;;;;;;25.31;39.47;99958.59;5090492;28;19946;-52
2021/07/26 00:22:29;;;;;;;;;;;;;;;24.55;41.19;99955.03;5090781;28;20380;-50
2021/07/26 00:24:54;;;;;;;;;;;;;;;24.48;41.77;99955.31;5090476;28;19912;-52
2021/07/26 00:27:20;;;;;;;;;;;;;;;24.48;41.90;99954.53;5090937;28;19961;-48
2021/07/26 00:29:45;;;;;;;;;;;;;;;24.49;41.87;99954.25;5094987;28;20264;-50
2021/07/26 00:32:10;;;;;;;;;;;;;;;25.10;40.20;99949.09;5094389;28;20057;-50
2021/07/26 00:34:36;;;;;;;;;;;;;;;24.64;41.59;99955.19;5094641;28;19912;-49
2021/07/26 00:37:04;;;;;;;;;;;;;;;24.36;42.39;99946.78;5093918;28;20438;-48
2021/07/26 00:39:30;;;;;;;;;;;;;;;24.31;42.64;99949.56;5094156;28;19923;-48
2021/07/26 00:41:56;;;;;;;;;;;;;;;24.58;41.81;99947.09;5094277;28;19935;-48
2021/07/26 00:44:21;;;;;;;;;;;;;;;24.55;41.57;99939.50;5108201;28;19968;-48
2021/07/26 00:46:47;;;;;;;;;;;;;;;24.00;43.33;99945.28;5114889;28;19916;-49
2021/07/26 00:49:14;;;;;;;;;;;;;;;23.99;43.60;99943.66;5115131;28;19918;-49
2021/07/26 00:51:40;;;;;;;;;;;;;;;24.07;43.45;99953.09;5114563;28;19920;-48
2021/07/26 00:54:05;;;;;;;;;;;;;;;24.40;42.73;99951.34;5114531;28;19915;-48
2021/07/26 00:56:30;;;;;;;;;;;;;;;24.25;42.67;99934.41;5113336;28;19912;-48
2021/07/26 00:58:56;;;;;;;;;;;;;;;24.26;42.82;99927.88;5114715;28;19916;-48
2021/07/26 01:01:21;;;;;;;;;;;;;;;24.15;42.79;99932.63;5114574;28;19916;-48
2021/07/26 01:03:47;;;;;;;;;;;;;;;24.09;43.20;99941.94;5114098;28;19911;-48
2021/07/26 01:06:12;;;;;;;;;;;;;;;24.73;41.79;99935.19;5112992;28;19912;-49
2021/07/26 01:08:37;;;;;;;;;;;;;;;24.17;42.70;99933.94;5114158;28;19920;-49
2021/07/26 01:11:03;;;;;;;;;;;;;;;24.29;42.56;99932.72;5112773;28;20368;-47
2021/07/26 01:13:30;;;;;;;;;;;;;;;24.28;42.74;99931.13;5114385;28;19911;-48
2021/07/26 01:15:55;;;;;;;;;;;;;;;24.45;41.91;99920.56;5097287;28;19948;-49
2021/07/26 01:18:33;;;;;;;;;;;;;;;24.81;41.73;99931.00;5093750;28;20284;-50
2021/07/26 01:21:02;;;;;;;;;;;;;;;24.40;42.35;99917.91;5093661;28;20011;-47
2021/07/26 01:23:28;;;;;;;;;;;;;;;24.50;41.96;99922.41;5093432;28;19912;-48
2021/07/26 01:25:53;;;;;;;;;;;;;;;24.28;42.89;99914.81;5093447;28;20351;-48
2021/07/26 01:28:19;;;;;;;;;;;;;;;24.69;41.62;99917.81;5093292;28;19970;-47
2021/07/26 01:30:45;;;;;;;;;;;;;;;24.34;42.69;99919.09;5092645;28;19916;-48
2021/07/26 01:33:10;;;;;;;;;;;;;;;23.95;43.52;99906.47;5093440;28;19916;-49
2021/07/26 01:35:36;;;;;;;;;;;;;;;24.04;43.45;99901.22;5093515;28;19928;-47
2021/07/26 01:38:01;;;;;;;;;;;;;;;24.18;42.92;99896.72;5093409;28;19912;-48
2021/07/26 01:40:28;;;;;;;;;;;;;;;24.36;42.57;99904.09;5092093;28;20331;-50
2021/07/26 01:43:00;;;;;;;;;;;;;;;24.00;43.30;99895.56;5094772;28;19977;-49
2021/07/26 01:45:26;;;;;;;;;;;;;;;23.86;43.57;99900.06;5113608;27;19964;-49
2021/07/26 01:47:51;;;;;;;;;;;;;;;23.78;43.76;99896.88;5113826;28;20417;-49
2021/07/26 01:50:20;;;;;;;;;;;;;;;24.49;42.15;99896.31;5112090;28;19911;-49
2021/07/26 01:52:45;;;;;;;;;;;;;;;23.72;43.84;99898.00;5112012;28;19938;-48
2021/07/26 01:55:10;;;;;;;;;;;;;;;23.61;44.52;99900.00;5113447;28;20014;-47
2021/07/26 01:57:36;;;;;;;;;;;;;;;23.64;44.95;99898.59;5113449;28;20355;-48
2021/07/26 02:00:01;;;;;;;;;;;;;;;24.20;43.52;99898.03;5111810;28;20014;-48
2021/07/26 02:02:28;;;;;;;;;;;;;;;24.32;42.80;99891.38;5113154;28;19912;-48
2021/07/26 02:04:53;;;;;;;;;;;;;;;23.89;43.69;99897.56;5113211;28;19916;-49
2021/07/26 02:07:18;;;;;;;;;;;;;;;23.72;44.00;99892.56;5113266;28;19923;-48
2021/07/26 02:09:43;;;;;;;;;;;;;;;23.77;44.40;99892.50;5113073;28;19969;-50
2021/07/26 02:12:09;;;;;;;;;;;;;;;24.40;42.71;99896.94;5113295;28;20330;-49
2021/07/26 02:14:34;;;;;;;;;;;;;;;23.74;44.69;99900.41;5113212;28;19915;-49
2021/07/26 02:16:59;;;;;;;;;;;;;;;23.84;43.76;99891.38;5112891;28;19924;-49
2021/07/26 02:19:24;;;;;;;;;;;;;;;23.91;43.78;99887.25;5113059;28;19928;-49
2021/07/26 02:21:51;;;;;;;;;;;;;;;24.25;43.17;99899.88;5112729;28;20728;-49
2021/07/26 02:24:16;;;;;;;;;;;;;;;23.90;44.03;99884.81;5113085;28;19933;-48
2021/07/26 02:26:42;;;;;;;;;;;;;;;23.55;45.00;99887.56;5112816;28;20313;-47
2021/07/26 02:29:07;;;;;;;;;;;;;;;23.48;44.68;99892.53;5111479;28;19954;-48
2021/07/26 02:31:32;;;;;;;;;;;;;;;22.86;46.02;99884.00;5092368;28;20286;-49
2021/07/26 02:33:58;;;;;;;;;;;;;;;23.68;44.07;99886.06;5092128;28;19912;-48
2021/07/26 02:36:23;;;;;;;;;;;;;;;22.98;45.50;99881.78;5092145;28;19924;-48
2021/07/26 02:38:48;;;;;;;;;;;;;;;22.80;46.18;99885.13;5092520;28;19923;-48
2021/07/26 02:41:14;;;;;;;;;;;;;;;22.80;46.32;99887.84;5092114;28;19912;-47
2021/07/26 02:43:39;;;;;;;;;;;;;;;23.48;44.11;99892.53;5099876;28;19912;-49
2021/07/26 02:46:06;;;;;;;;;;;;;;;23.33;44.39;99898.88;5112610;28;19918;-50
2021/07/26 02:48:31;;;;;;;;;;;;;;;22.96;45.39;99899.41;5112311;28;20378;-51
2021/07/26 02:50:57;;;;;;;;;;;;;;;22.87;45.91;99896.50;5111945;28;19915;-52
2021/07/26 02:53:22;;;;;;;;;;;;;;;22.95;45.37;99897.81;5112216;28;19919;-52
2021/07/26 02:55:47;;;;;;;;;;;;;;;23.16;45.86;99898.50;5111980;28;19912;-51
2021/07/26 02:58:13;;;;;;;;;;;;;;;22.95;46.57;99911.38;5112304;28;20007;-49
2021/07/26 03:00:38;;;;;;;;;;;;;;;22.84;46.77;99922.25;5111994;28;19920;-50
2021/07/26 03:03:03;;;;;;;;;;;;;;;22.78;46.60;99898.19;5111910;28;20328;-52
2021/07/26 03:05:31;;;;;;;;;;;;;;;23.48;45.19;99924.31;5111958;28;19918;-50
2021/07/26 03:07:57;;;;;;;;;;;;;;;22.97;46.13;99928.16;5112106;28;19920;-50
2021/07/26 03:10:22;;;;;;;;;;;;;;;22.66;46.58;99922.94;5111761;28;20066;-50
2021/07/26 03:12:47;;;;;;;;;;;;;;;22.17;48.28;99931.78;5112042;28;19919;-50
2021/07/26 03:15:13;;;;;;;;;;;;;;;22.56;46.72;99940.06;5103846;28;19965;-50
2021/07/26 03:17:38;;;;;;;;;;;;;;;22.95;46.04;99936.59;5091751;28;20241;-48
2021/07/26 03:20:04;;;;;;;;;;;;;;;22.89;46.87;99943.16;5090891;28;19935;-49
2021/07/26 03:22:48;;;;;;;;;;;;;;;22.94;46.27;99943.13;5090698;28;19923;-49
2021/07/26 03:25:13;;;;;;;;;;;;;;;22.69;46.18;99954.09;5090728;28;19973;-48
2021/07/26 03:27:38;;;;;;;;;;;;;;;23.43;44.44;99961.25;5090567;28;20319;-49
2021/07/26 03:30:04;;;;;;;;;;;;;;;22.93;45.93;99959.69;5082977;28;19919;-49
2021/07/26 03:32:29;;;;;;;;;;;;;;;22.85;46.13;99958.38;5070792;28;20010;-48
2021/07/26 03:34:54;;;;;;;;;;;;;;;23.00;45.61;99963.69;5070308;28;19940;-48
2021/07/26 03:37:20;;;;;;;;;;;;;;;23.55;44.07;99968.22;5070434;28;20281;-50
2021/07/26 03:39:45;;;;;;;;;;;;;;;23.31;44.32;99974.38;5070097;28;19912;-51
2021/07/26 03:42:10;;;;;;;;;;;;;;;23.16;45.16;99969.06;5070204;28;20269;-37
2021/07/26 03:44:36;;;;;;;;;;;;;;;23.35;44.19;99970.00;5101746;28;19918;-38
2021/07/26 03:47:01;;;;;;;;;;;;;;;23.46;44.38;99975.38;5092875;28;19923;-38
2021/07/26 03:49:26;;;;;;;;;;;;;;;23.74;43.63;99977.31;5090597;28;19912;-38
2021/07/26 03:51:51;;;;;;;;;;;;;;;23.45;44.51;99965.59;5090143;28;19985;-36
2021/07/26 03:54:17;;;;;;;;;;;;;;;23.74;44.27;99971.03;5090361;28;20032;-36
2021/07/26 03:56:42;;;;;;;;;;;;;;;23.92;44.02;99959.50;5090222;28;19912;-37
2021/07/26 03:59:07;;;;;;;;;;;;;;;24.28;42.87;99967.28;5090253;28;19978;-37
2021/07/26 04:01:33;;;;;;;;;;;;;;;24.44;42.18;99965.19;5090236;28;19916;-37
2021/07/26 04:03:58;;;;;;;;;;;;;;;24.55;42.38;99974.88;5093936;28;19912;-38
2021/07/26 04:06:23;;;;;;;;;;;;;;;24.72;42.05;99982.53;5094964;28;19912;-37
2021/07/26 04:08:51;;;;;;;;;;;;;;;24.81;41.64;99981.88;5095055;28;19923;-37
2021/07/26 04:11:26;;;;;;;;;;;;;;;24.96;41.10;99981.69;5094963;28;20296;-37
2021/07/26 04:13:56;;;;;;;;;;;;;;;24.78;41.81;99986.00;5094371;28;20002;-37
2021/07/26 04:16:21;;;;;;;;;;;;;;;24.92;41.33;99981.47;5094922;28;20233;-37
2021/07/26 04:18:49;;;;;;;;;;;;;;;25.26;40.49;99985.91;5094514;28;19995;-38
2021/07/26 04:21:15;;;;;;;;;;;;;;;25.53;40.05;99984.38;5094694;28;19912;-37
2021/07/26 04:23:40;;;;;;;;;;;;;;;25.53;39.98;99981.66;5094314;28;19927;-37
2021/07/26 04:26:08;;;;;;;;;;;;;;;25.53;40.12;99987.13;5094577;28;19919;-36
2021/07/26 04:28:34;;;;;;;;;;;;;;;25.70;39.33;99981.94;5094702;28;19912;-39
2021/07/26 04:30:59;;;;;;;;;;;;;;;25.94;38.94;99984.53;5083484;28;19926;-37
2021/07/26 04:33:24;;;;;;;;;;;;;;;26.26;38.45;99995.69;5074249;28;19920;-38
2021/07/26 04:35:50;;;;;;;;;;;;;;;26.25;38.06;99994.88;5073015;28;19917;-38
2021/07/26 04:38:15;;;;;;;;;;;;;;;26.69;37.63;99992.66;5073059;28;19912;-39
2021/07/26 04:40:40;;;;;;;;;;;;;;;26.44;37.87;99994.78;5073648;28;19913;-37
2021/07/26 04:43:06;;;;;;;;;;;;;;;26.34;38.09;99993.06;5076419;28;20389;-38
2021/07/26 04:45:31;;;;;;;;;;;;;;;26.67;37.23;100003.91;5092868;28;19912;-37
2021/07/26 04:47:56;;;;;;;;;;;;;;;27.06;36.50;99998.97;5091490;28;19919;-37
2021/07/26 04:50:21;;;;;;;;;;;;;;;27.15;36.35;99994.41;5092133;28;19912;-37
2021/07/26 04:52:47;;;;;;;;;;;;;;;27.55;35.49;99983.66;5092108;28;19977;-37
2021/07/26 04:55:12;;;;;;;;;;;;;;;27.91;34.43;99988.22;5091990;28;20456;-37
2021/07/26 04:57:37;;;;;;;;;;;;;;;28.18;33.72;99992.72;5091710;28;19916;-37
2021/07/26 05:00:03;;;;;;;;;;;;;;;28.26;33.69;99991.13;5091352;28;19929;-37
2021/07/26 05:02:29;;;;;;;;;;;;;;;28.74;32.98;99984.06;5091565;28;19912;-38
2021/07/26 05:04:54;;;;;;;;;;;;;;;28.57;33.47;99979.34;5093329;28;19933;-38
2021/07/26 05:07:19;;;;;;;;;;;;;;;28.62;33.58;99979.19;5093663;28;19912;-37
2021/07/26 05:09:45;;;;;;;;;;;;;;;28.72;33.55;99976.16;5093161;28;20261;-37
2021/07/26 05:12:14;;;;;;;;;;;;;;;28.63;33.59;99981.59;5093033;28;19915;-37
2021/07/26 05:14:40;;;;;;;;;;;;;;;28.86;33.32;99970.53;5093150;28;19912;-37
2021/07/26 05:17:06;;;;;;;;;;;;;;;29.27;32.59;99973.97;5093304;28;19969;-38
2021/07/26 05:19:31;;;;;;;;;;;;;;;29.18;32.40;99976.69;5092718;28;19997;-37
2021/07/26 05:21:56;;;;;;;;;;;;;;;29.34;32.53;99974.25;5074862;28;19922;-38
2021/07/26 05:24:24;;;;;;;;;;;;;;;29.54;31.52;99981.81;5092053;28;21525;-37
2021/07/26 05:26:59;;;;;;;;;;;;;;;29.63;31.26;99976.34;5092792;28;19918;-38
2021/07/26 05:29:24;;;;;;;;;;;;;;;29.83;30.77;99977.59;5092784;28;19993;-37
2021/07/26 05:31:49;;;;;;;;;;;;;;;29.88;30.80;99971.13;5092617;28;19963;-37
2021/07/26 05:34:14;;;;;;;;;;;;;;;30.18;30.02;99972.00;5092861;28;19912;-37
2021/07/26 05:36:40;;;;;;;;;;;;;;;30.39;29.82;99977.56;5092711;28;19920;-39
2021/07/26 05:39:05;;;;;;;;;;;;;;;30.49;29.54;99981.88;5092416;28;19926;-37
2021/07/26 05:41:31;;;;;;;;;;;;;;;30.82;28.86;99992.16;5092800;28;19912;-37
2021/07/26 05:43:56;;;;;;;;;;;;;;;30.50;29.56;99986.22;5103283;28;19930;-37
2021/07/26 05:46:21;;;;;;;;;;;;;;;30.26;29.80;99993.09;5113242;28;19912;-38
2021/07/26 05:48:46;;;;;;;;;;;;;;;30.62;29.96;99996.50;5112766;28;19912;-37
2021/07/26 05:51:12;;;;;;;;;;;;;;;31.25;28.78;99999.31;5112757;28;19915;-38
2021/07/26 05:53:37;;;;;;;;;;;;;;;32.10;27.85;99995.25;5113208;27;20305;-36
2021/07/26 05:56:06;;;;;;;;;;;;;;;31.84;28.31;100001.84;5112611;28;19912;-36
2021/07/26 05:58:33;;;;;;;;;;;;;;;31.70;28.27;99999.41;5112895;28;19926;-37
2021/07/26 06:01:10;;;;;;;;;;;;;;;31.84;28.28;99996.34;5113153;28;20307;-37
2021/07/26 06:03:35;;;;;;;;;;;;;;;32.11;28.24;99997.66;5112125;28;19918;-37
2021/07/26 06:06:04;;;;;;;;;;;;;;;32.56;27.24;100003.41;5112624;28;19912;-38
2021/07/26 06:08:29;;;;;;;;;;;;;;;32.75;26.74;100000.09;5112705;28;19923;-38
2021/07/26 06:10:54;;;;;;;;;;;;;;;32.32;27.68;99994.81;5112416;28;19923;-36
2021/07/26 06:13:20;;;;;;;;;;;;;;;32.39;27.38;99998.97;5112619;28;19915;-37
2021/07/26 06:15:45;;;;;;;;;;;;;;;32.51;27.60;100002.50;5101185;28;19942;-37
2021/07/26 06:18:10;;;;;;;;;;;;;;;32.81;27.25;99995.97;5092045;28;19926;-37
2021/07/26 06:20:35;;;;;;;;;;;;;;;32.97;26.80;99999.56;5091433;28;19942;-38
2021/07/26 06:23:01;;;;;;;;;;;;;;;32.81;27.26;99994.00;5091616;28;20002;-38
2021/07/26 06:25:26;;;;;;;;;;;;;;;32.83;27.07;99991.69;5089923;28;19920;-37
2021/07/26 06:27:53;;;;;;;;;;;;;;;32.61;26.92;99992.19;5091891;28;20019;-36
2021/07/26 06:30:19;;;;;;;;;;;;;;;32.88;27.11;99988.72;5091833;28;19995;-38
2021/07/26 06:32:44;;;;;;;;;;;;;;;33.31;26.57;99998.22;5092020;28;19920;-36
2021/07/26 06:35:10;;;;;;;;;;;;;;;33.80;25.25;99993.66;5091626;28;20041;-37
2021/07/26 06:37:35;;;;;;;;;;;;;;;33.35;26.34;99995.56;5092031;28;19912;-37
2021/07/26 06:40:02;;;;;;;;;;;;;;;33.10;26.36;100003.09;5091424;28;19916;-38
2021/07/26 06:42:27;;;;;;;;;;;;;;;33.22;26.23;100008.59;5091345;28;19931;-38
2021/07/26 06:44:52;;;;;;;;;;;;;;;32.10;27.68;100006.25;5091683;28;19916;-38
2021/07/26 06:47:18;;;;;;;;;;;;;;;32.60;27.17;100005.16;5091499;28;19911;-38
2021/07/26 06:49:43;;;;;;;;;;;;;;;32.46;27.68;100007.41;5091364;28;19912;-37
2021/07/26 06:52:08;;;;;;;;;;;;;;;32.85;27.31;99999.63;5091160;28;19959;-37
2021/07/26 06:54:34;;;;;;;;;;;;;;;33.34;26.44;99995.91;5091203;28;20308;-38
2021/07/26 06:56:59;;;;;;;;;;;;;;;33.73;26.39;99997.03;5091072;28;20368;-38
2021/07/26 06:59:24;;;;;;;;;;;;;;;34.26;25.25;99991.28;5091390;28;19963;-38
2021/07/26 07:01:50;;;;;;;;;;;;;;;34.80;24.84;99998.06;5091052;28;19995;-37
2021/07/26 07:04:15;;;;;;;;;;;;;;;34.22;25.71;99993.97;5091081;28;20023;-37
2021/07/26 07:06:41;;;;;;;;;;;;;;;34.04;25.84;99990.75;5090777;28;19930;-37
2021/07/26 07:09:06;;;;;;;;;;;;;;;34.08;25.56;99999.91;5090812;28;19966;-37
2021/07/26 07:11:31;;;;;;;;;;;;;;;34.34;25.61;100001.34;5090596;28;19964;-37
2021/07/26 07:13:57;;;;;;;;;;;;;;;34.40;25.12;99996.34;5090180;28;19912;-37
2021/07/26 07:16:23;;;;;;;;;;;;;;;34.87;24.40;99986.38;5090680;28;20042;-37
2021/07/26 07:18:49;;;;;;;;;;;;;;;34.22;25.05;99991.22;5090766;28;19931;-37
2021/07/26 07:21:24;;;;;;;;;;;;;;;34.33;24.97;99990.66;5091281;28;19919;-37
2021/07/26 07:23:49;;;;;;;;;;;;;;;34.60;24.64;99991.69;5099368;28;19929;-37
2021/07/26 07:26:15;;;;;;;;;;;;;;;34.91;24.10;99990.81;5098853;28;20002;-38
2021/07/26 07:28:40;;;;;;;;;;;;;;;35.08;24.01;99988.81;5090293;28;20086;-38
2021/07/26 07:31:06;;;;;;;;;;;;;;;36.10;23.11;99985.59;5090574;28;20022;-37
2021/07/26 07:33:31;;;;;;;;;;;;;;;35.44;23.94;99990.34;5090510;28;19977;-37
2021/07/26 07:36:00;;;;;;;;;;;;;;;35.37;23.73;99985.44;5090031;28;19912;-38
2021/07/26 07:38:26;;;;;;;;;;;;;;;35.43;23.50;99984.00;5089562;28;19912;-38
2021/07/26 07:40:52;;;;;;;;;;;;;;;35.29;23.80;99974.63;5090704;28;19912;-48
2021/07/26 07:43:17;;;;;;;;;;;;;;;35.62;23.30;99987.91;5095028;28;19912;-49
2021/07/26 07:45:42;;;;;;;;;;;;;;;36.46;22.09;99977.06;5111031;28;20248;-51
2021/07/26 07:48:08;;;;;;;;;;;;;;;36.06;22.37;99973.66;5110339;28;19912;-53
2021/07/26 07:50:33;;;;;;;;;;;;;;;35.30;23.35;99971.50;5109471;28;19908;-51
2021/07/26 07:52:58;;;;;;;;;;;;;;;35.03;23.93;99979.63;5110627;28;20416;-49
2021/07/26 07:55:24;;;;;;;;;;;;;;;35.50;23.38;99977.00;5110673;28;19915;-51
2021/07/26 07:57:52;;;;;;;;;;;;;;;35.48;23.45;99982.91;5110409;28;19963;-50
2021/07/26 08:00:17;;;;;;;;;;;;;;;36.18;22.73;99972.72;5110435;28;20295;-51
2021/07/26 08:02:43;;;;;;;;;;;;;;;35.92;23.33;99974.22;5110433;28;19919;-51
2021/07/26 08:05:08;;;;;;;;;;;;;;;36.01;23.28;99974.78;5110607;28;20050;-50
2021/07/26 08:07:34;;;;;;;;;;;;;;;36.08;22.98;99982.41;5110123;28;19915;-49
2021/07/26 08:09:59;;;;;;;;;;;;;;;36.32;23.03;99974.88;5109329;28;19912;-52
2021/07/26 08:12:25;;;;;;;;;;;;;;;36.53;22.69;99979.94;5108546;28;19916;-49
2021/07/26 08:14:50;;;;;;;;;;;;;;;37.37;21.48;99967.59;5088905;28;20358;-49
2021/07/26 08:17:15;;;;;;;;;;;;;;;36.66;22.09;99967.50;5088248;28;19923;-51
2021/07/26 08:19:41;;;;;;;;;;;;;;;35.69;22.82;99968.69;5088239;28;19932;-52
2021/07/26 08:22:06;;;;;;;;;;;;;;;36.04;22.78;99966.91;5088289;28;19912;-51
2021/07/26 08:24:31;;;;;;;;;;;;;;;36.23;22.42;99966.84;5089056;28;19912;-48
2021/07/26 08:26:56;;;;;;;;;;;;;;;36.45;21.90;99959.66;5090240;28;19912;-51
2021/07/26 08:29:22;;;;;;;;;;;;;;;36.85;21.20;99961.00;5090319;28;19912;-51
2021/07/26 08:31:47;;;;;;;;;;;;;;;36.41;22.28;99961.56;5090157;28;19923;-51
2021/07/26 08:34:12;;;;;;;;;;;;;;;36.33;22.75;99962.66;5090026;28;19962;-51
2021/07/26 08:36:38;;;;;;;;;;;;;;;36.46;21.54;99954.91;5089856;28;19958;-52
2021/07/26 08:39:03;;;;;;;;;;;;;;;36.59;21.80;99951.56;5090028;28;19946;-51
2021/07/26 08:41:28;;;;;;;;;;;;;;;36.71;21.69;99958.03;5090306;28;19919;-51
2021/07/26 08:43:54;;;;;;;;;;;;;;;36.77;20.94;99954.56;5099971;28;20430;-52
2021/07/26 08:46:19;;;;;;;;;;;;;;;37.82;20.15;99962.09;5110227;28;19919;-52
2021/07/26 08:48:47;;;;;;;;;;;;;;;37.42;20.45;99952.59;5111021;28;19912;-49
2021/07/26 08:51:17;;;;;;;;;;;;;;;37.10;20.73;99955.75;5113799;28;19916;-52
2021/07/26 08:53:42;;;;;;;;;;;;;;;37.11;21.22;99953.78;5112771;28;19958;-52
2021/07/26 08:56:08;;;;;;;;;;;;;;;36.23;21.66;99957.72;5114501;28;19943;-51
2021/07/26 08:58:33;;;;;;;;;;;;;;;36.14;21.74;99958.78;5113743;28;20373;-50
2021/07/26 09:00:58;;;;;;;;;;;;;;;36.96;21.60;99950.84;5111853;28;19912;-52
2021/07/26 09:03:24;;;;;;;;;;;;;;;36.83;21.13;99959.81;5113823;28;19912;-48
2021/07/26 09:05:49;;;;;;;;;;;;;;;36.51;20.78;99954.59;5113556;28;19919;-51
2021/07/26 09:08:14;;;;;;;;;;;;;;;35.92;21.53;99954.06;5113573;28;20303;-52
2021/07/26 09:10:42;;;;;;;;;;;;;;;35.59;21.97;99952.69;5113551;28;20368;-51
2021/07/26 09:13:10;;;;;;;;;;;;;;;35.38;22.15;99947.56;5107857;28;19912;-49
2021/07/26 09:15:37;;;;;;;;;;;;;;;35.44;22.83;99954.38;5092692;28;19916;-47
2021/07/26 09:18:03;;;;;;;;;;;;;;;35.13;22.83;99941.47;5093396;28;19920;-51
2021/07/26 09:20:29;;;;;;;;;;;;;;;34.97;22.41;99936.84;5092496;28;19924;-50
2021/07/26 09:22:58;;;;;;;;;;;;;;;35.13;22.90;99939.53;5093144;28;19918;-50
2021/07/26 09:25:27;;;;;;;;;;;;;;;35.09;22.89;99937.84;5093291;28;19919;-50
2021/07/26 09:27:56;;;;;;;;;;;;;;;34.80;22.65;99927.00;5093352;28;19912;-51
2021/07/26 09:30:22;;;;;;;;;;;;;;;35.13;22.53;99927.66;5093037;28;19958;-52
2021/07/26 09:32:47;;;;;;;;;;;;;;;34.94;22.76;99926.53;5093306;28;19951;-51
2021/07/26 09:35:13;;;;;;;;;;;;;;;34.72;22.37;99907.91;5093082;28;20003;-51
2021/07/26 09:37:38;;;;;;;;;;;;;;;35.44;22.07;99915.66;5092817;28;19923;-50
2021/07/26 09:40:19;;;;;;;;;;;;;;;36.06;21.66;99907.19;5091602;28;19920;-52
2021/07/26 09:42:45;;;;;;;;;;;;;;;36.03;21.56;99901.63;5092732;28;19916;-50
2021/07/26 09:45:20;;;;;;;;;;;;;;;35.48;22.13;99901.88;5113090;28;20006;-50
2021/07/26 09:47:53;;;;;;;;;;;;;;;35.27;22.39;99899.53;5111655;28;19911;-52
2021/07/26 09:50:31;;;;;;;;;;;;;;;35.79;21.98;99903.63;5111721;28;20401;-51
2021/07/26 09:52:57;;;;;;;;;;;;;;;36.06;22.24;99895.34;5113058;28;19923;-52
2021/07/26 09:55:28;;;;;;;;;;;;;;;36.56;20.75;99888.56;5111799;28;19912;-50
2021/07/26 09:57:57;;;;;;;;;;;;;;;36.98;20.13;99895.03;5111128;28;19912;-49
2021/07/26 10:00:22;;;;;;;;;;;;;;;36.47;20.55;99892.78;5110358;28;20367;-49
2021/07/26 10:02:47;;;;;;;;;;;;;;;35.74;20.91;99892.88;5112666;28;19911;-51
2021/07/26 10:05:13;;;;;;;;;;;;;;;35.51;21.49;99899.19;5112626;28;20008;-49
2021/07/26 10:07:38;;;;;;;;;;;;;;;35.87;21.61;99885.97;5112462;28;20276;-50
2021/07/26 10:10:04;;;;;;;;;;;;;;;35.98;21.26;99886.91;5112392;28;20010;-48
2021/07/26 10:12:29;;;;;;;;;;;;;;;36.46;20.77;99892.00;5112599;28;19915;-51
2021/07/26 10:14:54;;;;;;;;;;;;;;;36.92;20.26;99889.03;5090461;28;19965;-51
2021/07/26 10:17:19;;;;;;;;;;;;;;;36.44;21.28;99897.09;5090736;28;20307;-51
2021/07/26 10:19:45;;;;;;;;;;;;;;;36.67;21.34;99893.47;5090363;28;19924;-51
2021/07/26 10:22:11;;;;;;;;;;;;;;;36.86;20.70;99895.28;5092059;28;19915;-50
2021/07/26 10:24:37;;;;;;;;;;;;;;;37.03;20.54;99894.66;5090513;28;19942;-52
2021/07/26 10:27:03;;;;;;;;;;;;;;;36.98;20.65;99887.50;5090480;28;19912;-52
2021/07/26 10:29:48;;;;;;;;;;;;;;;36.98;20.78;99883.94;5090667;28;20328;-51
2021/07/26 10:32:28;;;;;;;;;;;;;;;37.29;20.11;99868.81;5091469;28;19916;-49
2021/07/26 10:34:54;;;;;;;;;;;;;;;37.24;20.22;99882.25;5091456;28;19912;-52
2021/07/26 10:37:39;;;;;;;;;;;;;;;37.22;20.86;99881.81;5091723;28;19912;-50
2021/07/26 10:40:23;;;;;;;;;;;;;;;37.65;19.82;99880.28;5091310;28;19995;-51
2021/07/26 10:42:49;;;;;;;;;;;;;;;37.56;20.20;99875.00;5092597;28;19912;-50
2021/07/26 10:45:34;;;;;;;;;;;;;;;37.43;20.34;99867.34;5111830;28;20322;-51
2021/07/26 10:48:18;;;;;;;;;;;;;;;37.75;20.22;99868.44;5111629;28;20407;-52
2021/07/26 10:50:46;;;;;;;;;;;;;;;37.02;20.43;99865.38;5111832;28;19925;-50
2021/07/26 10:53:32;;;;;;;;;;;;;;;36.99;20.09;99863.34;5110421;28;19928;-50
2021/07/26 10:56:07;;;;;;;;;;;;;;;36.15;21.43;99857.88;5111492;28;19977;-50
2021/07/26 10:58:38;;;;;;;;;;;;;;;36.33;21.17;99858.19;5111577;28;19912;-51
2021/07/26 11:01:22;;;;;;;;;;;;;;;36.82;20.68;99856.41;5111520;28;19999;-52
2021/07/26 11:03:54;;;;;;;;;;;;;;;36.42;20.75;99844.03;5111390;28;19916;-51
2021/07/26 11:06:38;;;;;;;;;;;;;;;36.48;21.12;99838.97;5111103;28;19951;-51
2021/07/26 11:09:19;;;;;;;;;;;;;;;37.26;19.92;99841.88;5111440;28;19915;-51
2021/07/26 11:11:48;;;;;;;;;;;;;;;37.41;19.82;99844.75;5111140;28;20441;-53
2021/07/26 11:14:14;;;;;;;;;;;;;;;36.83;20.40;99852.47;5096815;28;19965;-51
2021/07/26 11:16:48;;;;;;;;;;;;;;;36.69;20.34;99853.13;5091097;28;19916;-51
2021/07/26 11:19:28;;;;;;;;;;;;;;;36.33;20.31;99840.78;5090637;28;19924;-49
2021/07/26 11:21:54;;;;;;;;;;;;;;;36.33;20.83;99836.03;5091249;28;19920;-51
2021/07/26 11:24:39;;;;;;;;;;;;;;;36.60;20.22;99838.72;5090964;28;19999;-50
2021/07/26 11:27:04;;;;;;;;;;;;;;;36.22;20.40;99834.28;5090818;28;20248;-50
2021/07/26 11:29:30;;;;;;;;;;;;;;;36.67;20.23;99835.25;5090472;28;20379;-52
2021/07/26 11:31:56;;;;;;;;;;;;;;;36.22;20.51;99823.22;5090706;28;19949;-51
2021/07/26 11:34:22;;;;;;;;;;;;;;;35.95;20.96;99821.22;5090901;28;19923;-52
2021/07/26 11:37:09;;;;;;;;;;;;;;;36.64;19.99;99825.72;5090883;28;19985;-52
2021/07/26 11:39:46;;;;;;;;;;;;;;;37.29;19.76;99824.44;5090822;28;19931;-51
2021/07/26 11:42:12;;;;;;;;;;;;;;;37.27;19.46;99821.25;5090528;28;20459;-51
2021/07/26 11:44:37;;;;;;;;;;;;;;;36.92;20.08;99822.47;5106914;28;19943;-51
2021/07/26 11:47:03;;;;;;;;;;;;;;;36.92;20.60;99830.00;5110947;28;20299;-52
2021/07/26 11:49:28;;;;;;;;;;;;;;;36.67;20.23;99824.16;5110575;28;20420;-50
2021/07/26 11:52:07;;;;;;;;;;;;;;;36.95;19.49;99818.94;5111099;28;19970;-50
2021/07/26 11:54:32;;;;;;;;;;;;;;;36.53;20.11;99817.25;5110876;28;19922;-50
2021/07/26 11:57:04;;;;;;;;;;;;;;;36.75;20.26;99814.78;5110751;28;19987;-50
2021/07/26 11:59:31;;;;;;;;;;;;;;;37.17;19.60;99808.09;5110630;28;19912;-51
2021/07/26 12:01:57;;;;;;;;;;;;;;;36.81;19.92;99810.47;5110460;28;19912;-51
2021/07/26 12:04:27;;;;;;;;;;;;;;;37.39;19.63;99809.06;5109174;28;19911;-52
2021/07/26 12:06:56;;;;;;;;;;;;;;;37.20;19.64;99806.53;5103408;28;19927;-52
2021/07/26 12:09:21;;;;;;;;;;;;;;;37.59;19.17;99801.28;5089084;28;20336;-50
2021/07/26 12:11:47;;;;;;;;;;;;;;;37.74;18.90;99808.56;5091807;28;20079;-51
2021/07/26 12:14:41;;;;;;;;;;;;;;;37.45;19.22;99801.19;5091105;28;19922;-52
2021/07/26 12:17:11;;;;;;;;;;;;;;;36.98;19.87;99797.97;5089096;28;19973;-52
2021/07/26 12:19:37;;;;;;;;;;;;;;;37.20;18.86;99792.66;5089511;28;20018;-51
2021/07/26 12:22:13;;;;;;;;;;;;;;;37.12;18.61;99795.31;5089197;28;19920;-51
2021/07/26 12:24:44;;;;;;;;;;;;;;;37.08;18.82;99777.06;5089560;28;19916;-51
2021/07/26 12:27:10;;;;;;;;;;;;;;;37.26;19.44;99780.03;5091019;28;19958;-52
2021/07/26 12:29:36;;;;;;;;;;;;;;;37.43;19.05;99776.59;5096320;28;19924;-52
2021/07/26 12:32:02;;;;;;;;;;;;;;;37.22;19.45;99793.84;5096741;28;20015;-51
2021/07/26 12:34:27;;;;;;;;;;;;;;;37.16;19.14;99787.88;5094210;28;20294;-53
2021/07/26 12:36:57;;;;;;;;;;;;;;;37.36;19.05;99794.00;5093213;28;20414;-52
2021/07/26 12:39:24;;;;;;;;;;;;;;;37.15;18.88;99789.06;5093336;28;20071;-53
2021/07/26 12:41:50;;;;;;;;;;;;;;;37.33;18.83;99785.63;5092432;28;20414;-51
2021/07/26 12:44:16;;;;;;;;;;;;;;;37.43;18.87;99786.91;5094208;28;19991;-51